Upper Hoh, Washington
Current Conditions -  °F | °C
As of 7:53 PM on Sunday 23 Nov 2014 (Local Time) from KUIL Reporting Station
Haze Haze  
Wind Chill: 43°   Ceiling: Unl
Heat Index: 43°   Visibility: 6mi
Dew Point: 43°   Wind: 3mph
Humidity: 100%   Direction: 90°E
Pressure: 30.27"   Gusts: NA
Location:  47.9519°N, 124.29°W
Report Text: KUIL 240353Z AUTO 09003KT 6SM BR CLR 06/06 A3027 RMK AO2 SLP250 T00610061
Loading
Personal Weather Stations






























Interactive Weather Map New forecast layout! Learn more

10-Day Weather Forecast

Advertisements
Track Severe Weather on mobile